createdAt,value
2023-04-24T00:00:28.070Z,0.60
2023-04-24T00:02:58.246Z,2.50
2023-04-24T00:05:26.088Z,0.80
2023-04-24T00:07:56.535Z,1.00
2023-04-24T00:10:23.381Z,0.50
2023-04-24T00:12:50.171Z,0.60
2023-04-24T00:15:17.151Z,0.60
2023-04-24T00:17:44.024Z,0.80
2023-04-24T00:20:11.801Z,1.43
2023-04-24T00:22:39.139Z,1.33
2023-04-24T00:25:07.264Z,0.87
2023-04-24T00:27:34.496Z,0.70
2023-04-24T00:30:01.499Z,0.60
2023-04-24T00:32:28.598Z,0.90
2023-04-24T00:34:55.650Z,1.50
2023-04-24T00:37:22.729Z,1.07
2023-04-24T00:39:49.601Z,0.77
2023-04-24T00:42:16.577Z,2.10
2023-04-24T00:44:43.663Z,0.80
2023-04-24T00:47:12.229Z,1.20
2023-04-24T00:49:38.955Z,0.80
2023-04-24T00:52:08.863Z,0.80
2023-04-24T00:54:38.616Z,1.30
2023-04-24T00:57:05.992Z,1.40
2023-04-24T00:59:33.732Z,1.23
2023-04-24T01:02:00.843Z,1.03
2023-04-24T01:04:28.599Z,2.47
2023-04-24T01:06:56.888Z,1.03
2023-04-24T01:09:25.233Z,0.63
2023-04-24T01:11:52.501Z,0.80
2023-04-24T01:14:19.357Z,0.90
2023-04-24T01:16:46.206Z,1.90
2023-04-24T01:19:14.194Z,0.93
2023-04-24T01:21:43.031Z,1.00
2023-04-24T01:24:09.894Z,1.43
2023-04-24T01:26:36.909Z,2.00
2023-04-24T01:29:04.042Z,1.33
2023-04-24T01:31:31.602Z,1.20
2023-04-24T01:33:58.971Z,1.27
2023-04-24T01:36:28.358Z,0.90
2023-04-24T01:38:55.440Z,1.00
2023-04-24T01:41:22.746Z,1.43
2023-04-24T01:43:50.978Z,0.80
2023-04-24T01:46:17.978Z,0.70
2023-04-24T01:48:46.406Z,0.60
2023-04-24T01:51:13.431Z,1.07
2023-04-24T01:53:40.643Z,1.57
2023-04-24T01:56:07.885Z,1.63
2023-04-24T01:58:34.876Z,0.70
2023-04-24T02:01:01.933Z,1.17
2023-04-24T02:03:29.013Z,0.67
2023-04-24T02:05:56.339Z,1.93
2023-04-24T02:08:23.476Z,1.30
2023-04-24T02:10:50.369Z,1.07
2023-04-24T02:13:17.407Z,1.43
2023-04-24T02:15:44.197Z,1.40
2023-04-24T02:18:12.617Z,2.43
2023-04-24T02:20:39.555Z,1.10
2023-04-24T02:23:06.848Z,1.07
2023-04-24T02:25:34.896Z,1.33
2023-04-24T02:28:01.859Z,1.40
2023-04-24T02:30:29.024Z,1.10
2023-04-24T02:32:56.755Z,2.13
2023-04-24T02:35:24.122Z,1.33
2023-04-24T02:37:51.385Z,1.97
2023-04-24T02:40:18.407Z,1.10
2023-04-24T02:42:45.749Z,1.00
2023-04-24T02:45:12.542Z,1.53
2023-04-24T02:47:39.685Z,0.70
2023-04-24T02:50:07.404Z,1.43
2023-04-24T02:52:34.161Z,1.23
2023-04-24T02:55:01.123Z,1.60
2023-04-24T02:57:30.935Z,1.97
2023-04-24T02:59:57.811Z,5.17
2023-04-24T03:02:25.033Z,2.73
2023-04-24T03:04:52.181Z,1.23
2023-04-24T03:07:21.777Z,1.53
2023-04-24T03:09:49.180Z,0.80
2023-04-24T03:12:18.132Z,1.37
2023-04-24T03:14:45.228Z,1.67
2023-04-24T03:17:12.198Z,0.80
2023-04-24T03:19:39.871Z,1.07
2023-04-24T03:22:06.662Z,0.80
2023-04-24T03:24:34.012Z,1.73
2023-04-24T03:27:01.244Z,0.80
2023-04-24T03:29:30.217Z,1.27
2023-04-24T03:31:57.469Z,1.57
2023-04-24T03:34:24.283Z,0.97
2023-04-24T03:36:51.184Z,1.10
2023-04-24T03:39:18.224Z,1.67
2023-04-24T03:41:45.035Z,1.07
2023-04-24T03:44:12.224Z,1.17
2023-04-24T03:46:39.056Z,1.47
2023-04-24T03:49:05.924Z,1.87
2023-04-24T03:51:33.248Z,1.03
2023-04-24T03:54:00.122Z,3.70
2023-04-24T03:56:26.930Z,1.40
2023-04-24T03:58:53.933Z,2.00
2023-04-24T04:01:21.917Z,1.73
2023-04-24T04:03:48.857Z,2.33
2023-04-24T04:06:16.036Z,1.97
2023-04-24T04:08:43.403Z,1.80
2023-04-24T04:11:10.317Z,1.53
2023-04-24T04:13:37.126Z,3.70
2023-04-24T04:16:04.062Z,4.13
2023-04-24T04:18:31.287Z,3.93
2023-04-24T04:20:58.092Z,2.20
2023-04-24T04:23:24.936Z,2.23
2023-04-24T04:25:52.885Z,1.60
2023-04-24T04:28:20.965Z,2.10
2023-04-24T04:30:48.359Z,2.07
2023-04-24T04:33:15.741Z,4.67
2023-04-24T04:35:43.535Z,1.87
2023-04-24T04:38:11.931Z,2.13
2023-04-24T04:40:38.924Z,1.90
2023-04-24T04:43:06.049Z,3.40
2023-04-24T04:45:33.805Z,2.93
2023-04-24T04:48:01.990Z,4.47
2023-04-24T04:50:28.970Z,2.90
2023-04-24T04:52:55.941Z,3.47
2023-04-24T04:55:25.198Z,4.40
2023-04-24T04:57:52.793Z,5.80
2023-04-24T05:00:20.135Z,5.80
2023-04-24T05:02:47.199Z,6.63
2023-04-24T05:05:14.477Z,6.03
2023-04-24T05:07:41.378Z,7.43
2023-04-24T05:10:08.999Z,7.57
2023-04-24T05:12:35.923Z,6.97
2023-04-24T05:15:03.191Z,7.57
2023-04-24T05:17:30.727Z,7.90
2023-04-24T05:19:57.874Z,7.23
2023-04-24T05:22:24.985Z,8.50
2023-04-24T05:24:52.422Z,9.33
2023-04-24T05:27:19.559Z,9.90
2023-04-24T05:29:46.533Z,7.43
2023-04-24T05:32:13.326Z,9.97
2023-04-24T05:34:40.427Z,10.80
2023-04-24T05:37:09.478Z,8.43
2023-04-24T05:39:37.378Z,8.73
2023-04-24T05:42:05.922Z,8.67
2023-04-24T05:44:33.125Z,10.27
2023-04-24T05:46:59.942Z,9.30
2023-04-24T05:49:27.851Z,10.90
2023-04-24T05:51:54.851Z,12.43
2023-04-24T05:54:22.238Z,13.83
2023-04-24T05:56:51.229Z,10.27
2023-04-24T05:59:18.488Z,9.93
2023-04-24T06:01:46.171Z,13.50
2023-04-24T06:04:17.466Z,12.13
2023-04-24T06:06:44.539Z,10.00
2023-04-24T06:09:11.694Z,10.17
2023-04-24T06:11:38.828Z,14.83
2023-04-24T06:14:06.364Z,11.17
2023-04-24T06:16:33.483Z,12.43
2023-04-24T06:19:00.743Z,11.57
2023-04-24T06:21:31.601Z,11.43
2023-04-24T06:23:59.193Z,13.17
2023-04-24T06:26:27.603Z,11.93
2023-04-24T06:28:59.977Z,12.23
2023-04-24T06:31:27.202Z,12.60
2023-04-24T06:33:53.962Z,12.47
2023-04-24T06:36:21.260Z,15.73
2023-04-24T06:38:48.081Z,11.33
2023-04-24T06:41:15.045Z,12.60
2023-04-24T06:43:42.696Z,13.07
2023-04-24T06:46:09.992Z,12.13
2023-04-24T06:48:36.957Z,12.57
2023-04-24T06:51:04.004Z,13.40
2023-04-24T06:53:30.980Z,13.87
2023-04-24T06:55:57.843Z,11.17
2023-04-24T06:58:27.039Z,13.97
2023-04-24T07:00:53.954Z,12.23
2023-04-24T07:03:21.012Z,12.50
2023-04-24T07:05:48.937Z,12.00
2023-04-24T07:08:18.068Z,13.10
2023-04-24T07:10:45.943Z,11.97
2023-04-24T07:13:12.961Z,12.27
2023-04-24T07:15:40.899Z,12.43
2023-04-24T07:18:08.014Z,12.80
2023-04-24T07:20:35.400Z,11.80
2023-04-24T07:23:03.471Z,12.70
2023-04-24T07:25:30.573Z,10.40
2023-04-24T07:27:57.722Z,9.67
2023-04-24T07:30:24.857Z,9.13
2023-04-24T07:32:51.728Z,10.00
2023-04-24T07:35:19.375Z,8.53
2023-04-24T07:37:46.965Z,9.10
2023-04-24T07:40:14.843Z,10.00
2023-04-24T07:42:41.823Z,8.20
2023-04-24T07:45:09.192Z,8.33
2023-04-24T07:47:38.166Z,8.47
2023-04-24T07:50:06.581Z,10.53
2023-04-24T07:52:33.409Z,6.67
2023-04-24T07:55:01.461Z,6.30
2023-04-24T07:57:28.709Z,8.83
2023-04-24T07:59:56.383Z,6.97
2023-04-24T08:02:27.441Z,6.00
2023-04-24T08:05:00.141Z,6.33
2023-04-24T08:07:27.522Z,5.13
2023-04-24T08:09:54.812Z,4.70
2023-04-24T08:12:21.892Z,4.40
2023-04-24T08:14:48.722Z,4.73
2023-04-24T08:17:16.444Z,6.43
2023-04-24T08:19:48.732Z,5.67
2023-04-24T08:22:16.480Z,5.03
2023-04-24T08:24:43.499Z,4.60
2023-04-24T08:27:11.799Z,4.20
2023-04-24T08:29:38.735Z,5.33
2023-04-24T08:32:05.954Z,4.40
2023-04-24T08:34:33.067Z,4.13
2023-04-24T08:37:00.162Z,3.63
2023-04-24T08:39:27.097Z,4.10
2023-04-24T08:41:54.792Z,2.80
2023-04-24T08:44:21.742Z,7.67
2023-04-24T08:46:52.579Z,3.87
2023-04-24T08:49:21.267Z,2.43
2023-04-24T08:51:49.221Z,2.30
2023-04-24T08:54:16.380Z,2.10
2023-04-24T08:56:46.094Z,2.50
2023-04-24T08:59:13.842Z,2.20
2023-04-24T09:01:42.093Z,2.23
2023-04-24T09:04:14.597Z,3.17
2023-04-24T09:06:41.926Z,2.27
2023-04-24T09:09:10.859Z,2.53
2023-04-24T09:11:38.948Z,2.10
2023-04-24T09:14:06.589Z,2.97
2023-04-24T09:16:36.533Z,3.43
2023-04-24T09:19:04.508Z,4.63
2023-04-24T09:21:35.582Z,4.67
2023-04-24T09:24:05.690Z,2.30
2023-04-24T09:26:33.857Z,3.60
2023-04-24T09:29:01.851Z,3.00
2023-04-24T09:31:31.097Z,1.90
2023-04-24T09:34:02.324Z,1.93
2023-04-24T09:36:31.135Z,2.33
2023-04-24T09:39:17.043Z,1.63
2023-04-24T09:41:52.545Z,4.43
2023-04-24T09:44:24.225Z,1.70
2023-04-24T09:47:01.637Z,1.70
2023-04-24T09:49:31.028Z,2.90
2023-04-24T09:52:12.592Z,2.40
2023-04-24T09:54:40.664Z,1.70
2023-04-24T09:57:10.648Z,1.57
2023-04-24T09:59:45.779Z,2.77
2023-04-24T10:02:20.905Z,1.30
2023-04-24T10:05:01.306Z,1.30
2023-04-24T10:07:28.678Z,2.63
2023-04-24T10:09:56.226Z,1.97
2023-04-24T10:12:24.314Z,1.90
2023-04-24T10:14:52.172Z,3.30
2023-04-24T10:17:21.124Z,1.20
2023-04-24T10:19:48.997Z,3.10
2023-04-24T10:22:17.768Z,2.03
2023-04-24T10:24:48.640Z,1.30
2023-04-24T10:27:16.559Z,1.47
2023-04-24T10:29:45.882Z,1.20
2023-04-24T10:32:12.962Z,1.37
2023-04-24T10:34:39.939Z,1.10
2023-04-24T10:37:07.079Z,1.10
2023-04-24T10:39:34.800Z,2.57
2023-04-24T10:42:01.816Z,2.43
2023-04-24T10:44:37.889Z,2.33
2023-04-24T10:47:05.264Z,3.57
2023-04-24T10:49:33.362Z,3.37
2023-04-24T10:52:06.836Z,3.97
2023-04-24T10:54:47.506Z,3.33
2023-04-24T10:57:20.757Z,3.67
2023-04-24T11:00:17.048Z,3.77
2023-04-24T11:02:51.096Z,3.87
2023-04-24T11:05:18.933Z,4.13
2023-04-24T11:08:22.783Z,3.63
2023-04-24T11:11:01.039Z,4.03
2023-04-24T11:13:49.664Z,3.27
2023-04-24T11:16:30.093Z,4.03
2023-04-24T11:19:20.038Z,3.50
2023-04-24T11:21:49.699Z,3.70
2023-04-24T11:24:41.550Z,4.00
2023-04-24T11:27:22.736Z,3.93
2023-04-24T11:29:59.209Z,3.53
2023-04-24T11:32:33.481Z,3.93
2023-04-24T11:35:08.302Z,3.13
2023-04-24T11:37:40.430Z,2.23
2023-04-24T11:40:09.764Z,2.33
2023-04-24T11:42:38.138Z,2.00
2023-04-24T11:45:16.954Z,1.63
2023-04-24T11:47:45.211Z,1.67
2023-04-24T11:50:14.846Z,1.97
2023-04-24T11:52:43.820Z,1.27
2023-04-24T11:55:16.677Z,1.80
2023-04-24T11:57:48.018Z,1.73
2023-04-24T12:00:20.642Z,2.40
2023-04-24T12:02:48.132Z,1.83
2023-04-24T12:05:27.306Z,2.30
2023-04-24T12:07:54.972Z,2.23
2023-04-24T12:10:23.890Z,2.67
2023-04-24T12:12:52.603Z,4.00
2023-04-24T12:15:21.774Z,2.93
2023-04-24T12:17:51.824Z,2.50
2023-04-24T12:20:24.223Z,2.63
2023-04-24T12:22:55.328Z,2.67
2023-04-24T12:25:25.859Z,1.90
2023-04-24T12:28:11.947Z,3.63
2023-04-24T12:30:49.757Z,3.63
2023-04-24T12:33:21.487Z,4.77
2023-04-24T12:35:52.499Z,3.97
2023-04-24T12:38:26.628Z,4.13
2023-04-24T12:41:08.650Z,3.50
2023-04-24T12:43:36.358Z,4.17
2023-04-24T12:46:03.793Z,3.93
2023-04-24T12:48:32.089Z,4.87
2023-04-24T12:51:02.389Z,7.50
2023-04-24T12:53:30.793Z,6.63
2023-04-24T12:55:58.135Z,4.67
2023-04-24T12:58:25.573Z,4.60
2023-04-24T13:00:52.773Z,4.73
2023-04-24T13:03:20.622Z,7.57
2023-04-24T13:05:47.496Z,5.27
2023-04-24T13:08:14.556Z,7.27
2023-04-24T13:10:42.164Z,7.77
2023-04-24T13:13:10.035Z,5.37
2023-04-24T13:15:37.293Z,6.03
2023-04-24T13:18:04.318Z,5.57
2023-04-24T13:20:31.299Z,5.67
2023-04-24T13:22:58.489Z,5.23
2023-04-24T13:25:25.984Z,7.27
2023-04-24T13:27:53.367Z,6.67
2023-04-24T13:30:20.278Z,5.77
2023-04-24T13:32:47.399Z,4.00
2023-04-24T13:35:14.510Z,4.50
2023-04-24T13:37:41.512Z,5.93
2023-04-24T13:40:09.357Z,6.97
2023-04-24T13:42:36.456Z,5.70
2023-04-24T13:45:17.354Z,7.30
2023-04-24T13:47:52.318Z,7.43
2023-04-24T13:50:19.928Z,8.03
2023-04-24T13:52:46.912Z,9.20
2023-04-24T13:55:13.986Z,8.17
2023-04-24T13:57:41.269Z,9.37
2023-04-24T14:00:11.577Z,11.10
2023-04-24T14:02:39.080Z,16.20
2023-04-24T14:05:07.489Z,10.93
2023-04-24T14:07:34.330Z,10.43
2023-04-24T14:10:01.471Z,9.30
2023-04-24T14:12:28.647Z,9.53
2023-04-24T14:14:55.519Z,9.23
2023-04-24T14:17:22.727Z,10.43
2023-04-24T14:19:50.001Z,11.80
2023-04-24T14:22:17.692Z,9.57
2023-04-24T14:24:44.528Z,8.87
2023-04-24T14:27:11.304Z,8.60
2023-04-24T14:29:38.084Z,10.43
2023-04-24T14:32:05.122Z,10.03
2023-04-24T14:34:31.992Z,9.67
2023-04-24T14:36:59.795Z,9.53
2023-04-24T14:39:26.944Z,11.33
2023-04-24T14:41:53.811Z,8.17
2023-04-24T14:44:20.720Z,8.27
2023-04-24T14:46:47.836Z,9.30
2023-04-24T14:49:14.746Z,12.37
2023-04-24T14:51:42.251Z,8.70
2023-04-24T14:54:09.886Z,8.77
2023-04-24T14:56:37.154Z,9.70
2023-04-24T14:59:04.744Z,7.17
2023-04-24T15:01:32.153Z,6.00
2023-04-24T15:03:59.096Z,7.00
2023-04-24T15:06:26.410Z,5.70
2023-04-24T15:08:53.718Z,6.87
2023-04-24T15:11:21.165Z,4.87
2023-04-24T15:13:48.379Z,5.20
2023-04-24T15:16:15.770Z,6.20
2023-04-24T15:18:42.898Z,4.47
2023-04-24T15:21:09.962Z,9.60
2023-04-24T15:23:37.113Z,6.33
2023-04-24T15:26:04.158Z,4.87
2023-04-24T15:28:31.216Z,6.87
2023-04-24T15:30:58.343Z,6.83
2023-04-24T15:33:27.045Z,4.90
2023-04-24T15:35:54.140Z,4.23
2023-04-24T15:38:21.692Z,7.43
2023-04-24T15:40:49.372Z,3.03
2023-04-24T15:43:17.142Z,4.87
2023-04-24T15:45:45.046Z,3.00
2023-04-24T15:48:11.975Z,7.67
2023-04-24T15:50:39.126Z,3.90
2023-04-24T15:53:06.636Z,5.33
2023-04-24T15:55:33.898Z,4.23
2023-04-24T15:58:02.170Z,4.43
2023-04-24T16:00:34.117Z,2.97
2023-04-24T16:03:02.314Z,3.87
2023-04-24T16:05:30.046Z,5.60
2023-04-24T16:07:57.409Z,4.30
2023-04-24T16:10:24.483Z,2.33
2023-04-24T16:12:57.668Z,5.90
2023-04-24T16:15:24.586Z,4.10
2023-04-24T16:17:51.479Z,4.50
2023-04-24T16:20:18.568Z,3.60
2023-04-24T16:22:45.657Z,4.33
2023-04-24T16:25:12.912Z,5.10
2023-04-24T16:27:40.153Z,5.77
2023-04-24T16:30:11.259Z,4.43
2023-04-24T16:32:38.126Z,5.53
2023-04-24T16:35:05.537Z,6.37
2023-04-24T16:37:32.822Z,8.50
2023-04-24T16:39:59.962Z,6.60
2023-04-24T16:42:27.297Z,7.00
2023-04-24T16:44:54.167Z,8.00
2023-04-24T16:47:21.546Z,6.33
2023-04-24T16:49:49.805Z,4.87
2023-04-24T16:52:16.597Z,4.63
2023-04-24T16:54:43.640Z,2.23
2023-04-24T16:57:10.718Z,2.80
2023-04-24T16:59:38.611Z,3.83
2023-04-24T17:02:05.582Z,4.40
2023-04-24T17:04:35.901Z,4.90
2023-04-24T17:07:02.972Z,5.53
2023-04-24T17:09:30.877Z,3.17
2023-04-24T17:11:57.943Z,3.67
2023-04-24T17:14:26.445Z,2.97
2023-04-24T17:16:53.655Z,6.20
2023-04-24T17:19:20.768Z,3.30
2023-04-24T17:21:47.705Z,7.50
2023-04-24T17:24:14.871Z,4.57
2023-04-24T17:26:41.792Z,3.83
2023-04-24T17:29:08.907Z,7.33
2023-04-24T17:31:35.946Z,8.00
2023-04-24T17:34:03.894Z,6.80
2023-04-24T17:36:31.903Z,7.70
2023-04-24T17:38:58.853Z,6.77
2023-04-24T17:41:25.707Z,4.33
2023-04-24T17:43:52.863Z,7.00
2023-04-24T17:46:19.790Z,5.10
2023-04-24T17:48:48.953Z,5.97
2023-04-24T17:51:16.610Z,6.80
2023-04-24T17:53:44.537Z,8.13
2023-04-24T17:56:11.548Z,5.47
2023-04-24T17:58:38.800Z,4.47
2023-04-24T18:01:05.823Z,8.77
2023-04-24T18:03:33.101Z,4.80
2023-04-24T18:06:00.378Z,6.07
2023-04-24T18:08:27.225Z,6.73
2023-04-24T18:10:54.024Z,5.77
2023-04-24T18:13:21.329Z,6.33
2023-04-24T18:15:48.575Z,8.77
2023-04-24T18:18:15.563Z,6.47
2023-04-24T18:20:42.538Z,13.83
2023-04-24T18:23:09.339Z,8.67
2023-04-24T18:25:36.424Z,4.80
2023-04-24T18:28:03.484Z,6.70
2023-04-24T18:30:32.491Z,9.60
2023-04-24T18:33:00.400Z,7.53
2023-04-24T18:35:30.520Z,8.37
2023-04-24T18:37:58.519Z,11.53
2023-04-24T18:40:25.993Z,6.83
2023-04-24T18:42:57.303Z,7.60
2023-04-24T18:45:24.392Z,6.77
2023-04-24T18:47:53.287Z,7.23
2023-04-24T18:50:20.550Z,5.50
2023-04-24T18:52:47.685Z,7.53
2023-04-24T18:55:15.023Z,8.30
2023-04-24T18:57:41.771Z,10.47
2023-04-24T19:00:11.247Z,10.37
2023-04-24T19:02:38.361Z,8.00
2023-04-24T19:05:08.518Z,10.40
2023-04-24T19:07:37.952Z,12.97
2023-04-24T19:10:05.562Z,9.33
2023-04-24T19:12:32.439Z,8.10
2023-04-24T19:15:01.874Z,7.83
2023-04-24T19:17:32.201Z,6.00
2023-04-24T19:20:01.792Z,8.50
2023-04-24T19:22:32.055Z,9.23
2023-04-24T19:25:01.907Z,8.90
2023-04-24T19:27:28.877Z,8.47
2023-04-24T19:29:56.018Z,7.87
2023-04-24T19:32:26.034Z,12.97
2023-04-24T19:34:55.574Z,7.83
2023-04-24T19:37:22.460Z,9.63
2023-04-24T19:39:49.556Z,9.90
2023-04-24T19:42:16.686Z,9.43
2023-04-24T19:44:44.944Z,8.40
2023-04-24T19:47:15.224Z,11.13
2023-04-24T19:49:44.902Z,10.40
2023-04-24T19:52:12.419Z,8.03
2023-04-24T19:54:39.509Z,14.63
2023-04-24T19:57:06.897Z,9.43
2023-04-24T19:59:34.161Z,6.67
2023-04-24T20:02:05.962Z,8.57
2023-04-24T20:04:33.149Z,10.87
2023-04-24T20:07:00.558Z,9.27
2023-04-24T20:09:27.542Z,10.57
2023-04-24T20:11:57.600Z,12.23
2023-04-24T20:14:27.543Z,11.50
2023-04-24T20:16:57.860Z,14.33
2023-04-24T20:19:25.166Z,14.67
2023-04-24T20:21:54.646Z,10.83
2023-04-24T20:24:21.677Z,8.43
2023-04-24T20:26:48.585Z,11.97
2023-04-24T20:29:15.888Z,8.50
2023-04-24T20:31:43.328Z,7.30
2023-04-24T20:34:10.104Z,11.07
2023-04-24T20:36:37.226Z,13.43
2023-04-24T20:39:06.740Z,10.50
2023-04-24T20:41:34.106Z,9.57
2023-04-24T20:44:01.456Z,10.17
2023-04-24T20:46:36.344Z,13.30
2023-04-24T20:49:06.173Z,9.13
2023-04-24T20:51:41.548Z,14.43
2023-04-24T20:54:10.953Z,14.30
2023-04-24T20:56:37.823Z,12.53
2023-04-24T20:59:13.584Z,8.20
2023-04-24T21:01:46.593Z,9.40
2023-04-24T21:04:13.792Z,7.37
2023-04-24T21:06:43.727Z,9.73
2023-04-24T21:09:15.664Z,10.50
2023-04-24T21:11:45.735Z,10.03
2023-04-24T21:14:16.287Z,12.20
2023-04-24T21:16:45.736Z,10.70
2023-04-24T21:19:15.936Z,6.37
2023-04-24T21:21:52.854Z,14.37
2023-04-24T21:24:20.052Z,11.37
2023-04-24T21:26:59.204Z,11.53
2023-04-24T21:29:27.869Z,7.80
2023-04-24T21:31:57.471Z,10.70
2023-04-24T21:34:27.606Z,8.60
2023-04-24T21:36:57.851Z,13.73
2023-04-24T21:39:27.707Z,9.23
2023-04-24T21:41:58.529Z,11.90
2023-04-24T21:44:25.720Z,13.13
2023-04-24T21:46:53.193Z,9.27
2023-04-24T21:49:20.128Z,12.23
2023-04-24T21:51:46.894Z,11.27
2023-04-24T21:54:14.367Z,11.53
2023-04-24T21:56:41.644Z,11.60
2023-04-24T21:59:10.129Z,14.73
2023-04-24T22:01:37.308Z,10.90
2023-04-24T22:04:04.735Z,9.67
2023-04-24T22:06:34.916Z,16.53
2023-04-24T22:09:02.832Z,14.77
2023-04-24T22:11:32.707Z,12.17
2023-04-24T22:13:59.915Z,10.93
2023-04-24T22:16:28.431Z,13.20
2023-04-24T22:18:57.339Z,13.00
2023-04-24T22:21:24.128Z,15.17
2023-04-24T22:23:57.022Z,14.00
2023-04-24T22:26:24.215Z,11.37
2023-04-24T22:28:51.084Z,14.00
2023-04-24T22:31:18.580Z,15.17
2023-04-24T22:33:48.785Z,11.87
2023-04-24T22:36:15.949Z,14.13
2023-04-24T22:38:42.892Z,15.03
2023-04-24T22:41:10.070Z,19.07
2023-04-24T22:43:37.507Z,17.07
2023-04-24T22:46:05.086Z,9.13
2023-04-24T22:48:32.908Z,13.33
2023-04-24T22:50:59.758Z,14.33
2023-04-24T22:53:27.981Z,10.93
2023-04-24T22:55:56.285Z,11.30
2023-04-24T22:58:24.544Z,13.53
2023-04-24T23:00:51.523Z,8.50
2023-04-24T23:03:18.579Z,14.87
2023-04-24T23:05:45.688Z,9.93
2023-04-24T23:08:12.649Z,12.70
2023-04-24T23:10:44.729Z,11.53
2023-04-24T23:13:12.013Z,17.63
2023-04-24T23:15:40.618Z,10.87
2023-04-24T23:18:07.528Z,11.30
2023-04-24T23:20:34.597Z,15.60
2023-04-24T23:23:01.788Z,15.40
2023-04-24T23:25:28.710Z,13.93
2023-04-24T23:27:56.627Z,16.40
2023-04-24T23:30:23.564Z,12.17
2023-04-24T23:32:50.496Z,16.83
2023-04-24T23:35:17.516Z,13.67
2023-04-24T23:37:44.318Z,13.30
2023-04-24T23:40:11.749Z,17.47
2023-04-24T23:42:38.661Z,12.17
2023-04-24T23:45:05.985Z,14.77
2023-04-24T23:47:32.979Z,12.23
2023-04-24T23:49:59.768Z,13.73
2023-04-24T23:52:26.636Z,14.03
2023-04-24T23:54:54.236Z,12.50
2023-04-24T23:57:21.723Z,15.67
2023-04-24T23:59:48.601Z,10.83
